Time;durP1;ratioP1;P1;durP2;ratioP2;P2;SDS_P1;SDS_P2;PMS_P1;PMS_P2;Temp;Humidity;BMP_temperature;BMP_pressure;BME280_temperature;BME280_humidity;BME280_pressure;Samples;Min_cycle;Max_cycle;Signal;HPM_P1;HPM_P2
2023/08/21 00:01:30;;;;;;;24.85;12.60;;;;;;;15.94;71.64;96434.66;6199550;28;20042;-70
2023/08/21 00:04:32;;;;;;;23.17;12.10;;;;;;;15.94;71.89;96436.50;6199984;28;20054;-70
2023/08/21 00:07:39;;;;;;;21.42;12.02;;;;;;;15.91;71.93;96436.78;6200640;28;20046;-70
2023/08/21 00:10:40;;;;;;;23.10;12.63;;;;;;;15.87;72.04;96427.41;6199292;28;20506;-71
2023/08/21 00:13:49;;;;;;;15.85;10.77;;;;;;;15.85;72.20;96434.66;6199771;28;20046;-70
2023/08/21 00:16:53;;;;;;;19.20;11.55;;;;;;;15.82;72.49;96430.50;6181689;28;20061;-71
2023/08/21 00:19:54;;;;;;;;;;;;;;;15.73;72.54;96438.47;6199384;28;20054;-69
2023/08/21 00:22:55;;;;;;;14.90;9.57;;;;;;;15.76;72.61;96427.56;6198993;28;19917;-69
2023/08/21 00:25:57;;;;;;;21.08;9.95;;;;;;;15.81;72.21;96425.34;6214193;28;20410;-69
2023/08/21 00:29:02;;;;;;;19.63;10.82;;;;;;;15.83;72.44;96415.44;6198500;28;20165;-70
2023/08/21 00:32:03;;;;;;;17.40;10.60;;;;;;;15.80;72.52;96421.84;6181429;28;20061;-70
2023/08/21 00:35:04;;;;;;;17.60;11.02;;;;;;;15.79;72.68;96421.97;6197425;28;20058;-70
2023/08/21 00:38:11;;;;;;;18.25;10.35;;;;;;;15.77;72.79;96413.31;6199188;28;20042;-70
2023/08/21 00:41:12;;;;;;;20.50;11.40;;;;;;;15.82;72.58;96417.22;6199356;28;20050;-70
2023/08/21 00:44:18;;;;;;;15.00;10.23;;;;;;;15.81;72.50;96420.03;6198943;28;20042;-69
2023/08/21 00:47:21;;;;;;;18.27;10.73;;;;;;;15.77;72.59;96414.19;6198320;28;20046;-70
2023/08/21 00:50:24;;;;;;;20.27;11.25;;;;;;;15.74;72.65;96414.47;6198686;28;20133;-70
2023/08/21 00:53:27;;;;;;;17.85;10.70;;;;;;;15.71;72.69;96420.06;6180498;28;20042;-70
2023/08/21 00:56:28;;;;;;;14.23;9.80;;;;;;;15.64;72.88;96419.75;6198093;28;20108;-70
2023/08/21 00:59:30;;;;;;;14.60;10.40;;;;;;;15.63;72.96;96423.38;6197680;28;20433;-69
2023/08/21 01:02:33;;;;;;;16.08;9.60;;;;;;;15.58;73.06;96420.31;6198489;28;20042;-69
2023/08/21 01:05:40;;;;;;;14.38;9.30;;;;;;;15.52;73.39;96412.94;6180861;28;20591;-70
2023/08/21 01:08:57;;;;;;;13.48;8.50;;;;;;;15.56;73.59;96416.97;6197268;28;20042;-70
2023/08/21 01:12:15;;;;;;;13.63;8.68;;;;;;;15.54;73.75;96413.63;6198320;28;20046;-71
2023/08/21 01:15:19;;;;;;;15.85;9.05;;;;;;;15.50;73.83;96409.59;6198182;28;20042;-70
2023/08/21 01:18:28;;;;;;;12.63;8.18;;;;;;;15.60;74.00;96401.63;6180822;28;20050;-70
2023/08/21 01:21:31;;;;;;;22.50;12.05;;;;;;;15.64;73.87;96398.53;6198248;28;20421;-70
2023/08/21 01:24:33;;;;;;;13.65;8.57;;;;;;;15.64;74.07;96400.34;6197659;28;20046;-70
2023/08/21 01:27:35;;;;;;;12.57;8.63;;;;;;;15.68;74.35;96402.63;6200332;28;20388;-70
2023/08/21 01:30:40;;;;;;;13.27;9.45;;;;;;;15.74;73.87;96397.69;6173383;28;20434;-70
2023/08/21 01:34:06;;;;;;;12.02;8.50;;;;;;;15.81;74.19;96393.50;6174208;28;20047;-70
2023/08/21 01:37:09;;;;;;;17.60;9.68;;;;;;;15.83;73.91;96392.38;6173346;28;20057;-70
2023/08/21 01:40:10;;;;;;;13.70;8.90;;;;;;;15.90;73.78;96397.94;6173651;28;20130;-71
2023/08/21 01:43:16;;;;;;;12.43;8.98;;;;;;;15.93;73.35;96385.22;6172957;28;20047;-70
2023/08/21 01:46:20;;;;;;;20.23;10.48;;;;;;;15.95;73.19;96377.13;6156336;28;20517;-70
2023/08/21 01:49:22;;;;;;;14.82;9.45;;;;;;;15.94;73.00;96368.34;6172699;28;20049;-70
2023/08/21 01:52:23;;;;;;;15.18;8.45;;;;;;;15.96;73.01;96370.00;6155930;28;20046;-70
2023/08/21 01:55:26;;;;;;;20.65;10.63;;;;;;;16.00;73.08;96369.56;6172455;28;20051;-70
2023/08/21 01:58:27;;;;;;;17.95;10.10;;;;;;;16.07;72.63;96383.91;6172430;28;20061;-71
2023/08/21 02:01:33;;;;;;;18.40;9.98;;;;;;;16.13;72.33;96383.31;6155589;28;20053;-69
2023/08/21 02:04:35;;;;;;;19.10;9.82;;;;;;;16.16;72.20;96404.31;6172296;28;20051;-70
2023/08/21 02:07:37;;;;;;;16.95;9.93;;;;;;;16.11;71.99;96392.44;6172144;28;20043;-70
2023/08/21 02:10:38;;;;;;;17.00;9.73;;;;;;;16.11;72.23;96389.78;6155256;28;20046;-70
2023/08/21 02:13:44;;;;;;;56.53;33.38;;;;;;;16.20;72.12;96393.38;6172742;28;20050;-70
2023/08/21 02:16:49;;;;;;;29.55;13.32;;;;;;;16.33;72.00;96377.94;6171695;28;20062;-70
2023/08/21 02:19:55;;;;;;;27.45;12.10;;;;;;;16.48;71.67;96376.47;6172672;28;20038;-70
2023/08/21 02:23:00;;;;;;;28.42;12.27;;;;;;;16.70;71.33;96390.31;6154757;28;20498;-70
2023/08/21 02:26:01;;;;;;;25.70;12.13;;;;;;;16.79;71.11;96384.16;6154848;28;20486;-70
2023/08/21 02:29:03;;;;;;;23.63;10.43;;;;;;;16.80;71.04;96383.16;6195223;28;20054;-70
2023/08/21 02:32:12;;;;;;;19.58;10.65;;;;;;;16.86;71.26;96389.69;6195777;28;20050;-70
2023/08/21 02:35:13;;;;;;;15.60;9.80;;;;;;;16.90;71.23;96378.63;6196842;28;20053;-70
2023/08/21 02:38:15;;;;;;;16.98;10.23;;;;;;;16.99;71.25;96375.06;6196617;28;20034;-70
2023/08/21 02:41:21;;;;;;;14.13;9.75;;;;;;;17.16;71.03;96368.06;6196436;28;20038;-70
2023/08/21 02:44:27;;;;;;;13.98;8.70;;;;;;;17.34;70.96;96367.22;6196178;28;20042;-70
2023/08/21 02:47:29;;;;;;;;;;;;;;;17.42;70.45;96362.78;6195938;28;20070;-70
2023/08/21 02:50:32;;;;;;;14.30;8.60;;;;;;;17.56;70.04;96365.91;6179442;28;19921;-70
2023/08/21 02:53:39;;;;;;;10.45;7.18;;;;;;;17.68;69.75;96364.66;6196532;28;20139;-68
2023/08/21 02:56:41;;;;;;;11.60;7.90;;;;;;;17.75;69.60;96363.03;6194998;28;20052;-71
2023/08/21 02:59:42;;;;;;;11.15;7.78;;;;;;;17.86;69.33;96361.94;6196143;28;20645;-70
2023/08/21 03:02:48;;;;;;;10.52;6.97;;;;;;;17.94;68.93;96360.16;6179049;28;20117;-71
2023/08/21 03:05:54;;;;;;;13.48;8.02;;;;;;;18.03;68.72;96363.75;6195901;28;20113;-70
2023/08/21 03:09:00;;;;;;;12.98;7.75;;;;;;;18.12;68.55;96360.13;6194765;28;20050;-70
2023/08/21 03:12:04;;;;;;;12.20;8.98;;;;;;;18.30;68.54;96354.69;6196096;28;20042;-68
2023/08/21 03:15:10;;;;;;;15.88;9.15;;;;;;;18.46;68.14;96359.28;6196676;28;20038;-69
2023/08/21 03:18:12;;;;;;;23.13;9.90;;;;;;;18.50;67.57;96365.09;6195744;28;20049;-69
2023/08/21 03:21:15;;;;;;;33.70;14.27;;;;;;;18.53;67.41;96359.44;6194843;28;20046;-70
2023/08/21 03:24:21;;;;;;;40.05;14.27;;;;;;;18.60;66.98;96350.66;6178719;28;20469;-70
2023/08/21 03:27:24;;;;;;;58.60;15.57;;;;;;;18.76;66.55;96360.53;6194757;28;20056;-70
2023/08/21 03:30:26;;;;;;;54.17;18.50;;;;;;;18.95;65.76;96358.59;6177899;28;20450;-71
2023/08/21 03:33:29;;;;;;;45.15;16.77;;;;;;;19.15;65.33;96354.59;6196056;28;20046;-71
2023/08/21 03:36:31;;;;;;;60.72;19.48;;;;;;;19.36;64.80;96347.94;6200186;28;20054;-71
2023/08/21 03:39:33;;;;;;;57.93;18.33;;;;;;;19.52;63.99;96329.25;6200755;28;20531;-71
2023/08/21 03:42:36;;;;;;;;;;;;;;;19.67;63.66;96332.09;6183715;28;20046;-69
2023/08/21 03:45:40;;;;;;;49.47;16.77;;;;;;;19.77;63.20;96332.75;6200580;28;19918;-71
2023/08/21 03:48:46;;;;;;;59.92;19.15;;;;;;;19.86;62.48;96338.91;6200166;28;20628;-69
2023/08/21 03:51:50;;;;;;;61.90;19.63;;;;;;;19.95;61.85;96343.22;6199454;28;20145;-69
2023/08/21 03:54:57;;;;;;;50.80;16.25;;;;;;;20.12;61.49;96342.16;6199503;28;20050;-71
2023/08/21 03:57:58;;;;;;;44.75;16.10;;;;;;;20.34;60.76;96345.09;6214387;28;20474;-70
2023/08/21 04:01:05;;;;;;;37.63;13.63;;;;;;;20.52;60.08;96348.38;6199034;28;20461;-70
2023/08/21 04:04:09;;;;;;;26.17;10.05;;;;;;;20.66;59.62;96338.81;6182843;28;20042;-69
2023/08/21 04:07:12;;;;;;;16.60;7.95;;;;;;;20.72;58.72;96345.28;6199680;28;20517;-70
2023/08/21 04:10:16;;;;;;;16.90;7.50;;;;;;;20.73;58.10;96338.94;6199111;28;20418;-71
2023/08/21 04:13:22;;;;;;;12.15;6.75;;;;;;;20.72;57.12;96331.91;6181484;28;20073;-71
2023/08/21 04:16:28;;;;;;;19.38;9.55;;;;;;;20.80;56.43;96345.25;6199523;28;20418;-72
2023/08/21 04:19:32;;;;;;;34.88;12.73;;;;;;;20.90;55.05;96345.84;6199195;28;20050;-70
2023/08/21 04:22:34;;;;;;;39.10;12.95;;;;;;;21.02;53.51;96343.59;6198968;28;20046;-72
2023/08/21 04:25:39;;;;;;;29.08;11.13;;;;;;;21.15;52.71;96354.56;6199399;28;20062;-69
2023/08/21 04:28:43;;;;;;;27.25;9.60;;;;;;;21.14;51.40;96333.31;6198290;28;20061;-69
2023/08/21 04:31:44;;;;;;;17.02;6.63;;;;;;;21.41;50.59;96354.22;6198248;28;20053;-71
2023/08/21 04:34:45;;;;;;;8.25;4.95;;;;;;;21.36;48.76;96340.50;6181429;28;20132;-72
2023/08/21 04:37:48;;;;;;;7.38;3.90;;;;;;;21.36;48.11;96345.84;6199034;28;20065;-70
2023/08/21 04:40:51;;;;;;;5.65;3.65;;;;;;;21.49;47.93;96350.66;6199468;28;20043;-71
2023/08/21 04:43:56;;;;;;;4.38;3.47;;;;;;;21.58;47.22;96354.09;6198990;28;20034;-70
2023/08/21 04:46:57;;;;;;;4.28;3.47;;;;;;;21.61;46.74;96348.38;6198240;28;20510;-71
2023/08/21 04:49:58;;;;;;;5.10;4.13;;;;;;;21.76;46.72;96351.91;6180672;28;20062;-70
2023/08/21 04:52:59;;;;;;;4.53;3.63;;;;;;;21.80;45.73;96353.22;6198184;28;20042;-71
2023/08/21 04:56:01;;;;;;;6.00;3.47;;;;;;;21.75;45.85;96344.88;6197642;28;20625;-71
2023/08/21 04:59:06;;;;;;;4.88;3.78;;;;;;;21.91;44.79;96344.72;6198409;28;20532;-70
2023/08/21 05:02:10;;;;;;;11.70;6.63;;;;;;;22.31;43.70;96349.84;6198563;28;20136;-70
2023/08/21 05:05:14;;;;;;;5.53;3.38;;;;;;;23.94;40.22;96347.44;6198833;28;20049;-71
2023/08/21 05:08:20;;;;;;;4.68;2.65;;;;;;;27.14;34.31;96348.59;6198438;28;20066;-70
2023/08/21 05:11:25;;;;;;;3.75;2.35;;;;;;;31.77;27.96;96360.25;6198633;28;20436;-72
2023/08/21 05:14:29;;;;;;;2.88;1.95;;;;;;;35.08;22.97;96355.06;6198295;28;20053;-70
2023/08/21 05:17:31;;;;;;;4.95;1.48;;;;;;;37.15;17.01;96361.06;6180821;28;20124;-71
2023/08/21 05:20:36;;;;;;;1.83;1.27;;;;;;;38.21;13.99;96350.47;6198245;28;20128;-72
2023/08/21 05:23:40;;;;;;;1.48;0.80;;;;;;;39.33;12.61;96344.88;6198165;28;20081;-71
2023/08/21 05:26:44;;;;;;;2.58;1.08;;;;;;;39.80;11.90;96356.84;6197756;28;20054;-72
2023/08/21 05:29:50;;;;;;;1.23;0.70;;;;;;;40.52;10.65;96362.78;6180828;28;20125;-71
2023/08/21 05:32:55;;;;;;;1.10;0.60;;;;;;;42.07;9.88;96352.88;6198029;28;20034;-72
2023/08/21 05:36:00;;;;;;;1.50;0.52;;;;;;;43.34;9.61;96351.38;6198141;28;20500;-71
2023/08/21 05:39:08;;;;;;;0.63;0.57;;;;;;;43.45;9.01;96349.91;6197890;28;20042;-72
2023/08/21 05:42:13;;;;;;;1.88;0.80;;;;;;;43.95;8.58;96343.16;6197981;28;20180;-71
2023/08/21 05:45:17;;;;;;;0.75;0.52;;;;;;;44.03;8.75;96342.31;6197392;28;20046;-71
2023/08/21 05:48:20;;;;;;;1.73;0.50;;;;;;;43.85;8.05;96340.66;6197265;28;20417;-72
2023/08/21 05:51:24;;;;;;;0.88;0.60;;;;;;;43.60;8.76;96345.91;6197709;28;20547;-70
2023/08/21 05:54:30;;;;;;;3.63;0.70;;;;;;;42.57;8.85;96341.66;6197168;28;20050;-70
2023/08/21 05:57:35;;;;;;;2.47;0.50;;;;;;;41.27;9.69;96338.69;6196101;28;20133;-70
2023/08/21 06:00:41;;;;;;;3.40;0.70;;;;;;;40.34;10.29;96333.34;6179582;28;20069;-70
2023/08/21 06:03:45;;;;;;;1.15;0.73;;;;;;;38.10;11.33;96329.69;6197260;28;20467;-70
2023/08/21 06:06:50;;;;;;;0.85;0.68;;;;;;;37.13;12.09;96313.88;6197127;28;20133;-71
2023/08/21 06:09:55;;;;;;;2.10;0.90;;;;;;;38.04;11.67;96317.94;6197023;28;20133;-70
2023/08/21 06:13:02;;;;;;;2.22;0.80;;;;;;;39.27;10.84;96322.88;6196604;28;20061;-71
2023/08/21 06:16:07;;;;;;;1.55;0.77;;;;;;;40.79;10.23;96328.09;6196882;28;20099;-71
2023/08/21 06:19:11;;;;;;;1.25;0.65;;;;;;;42.81;9.30;96331.06;6196717;28;20049;-70
2023/08/21 06:22:15;;;;;;;1.10;0.60;;;;;;;44.40;8.16;96345.53;6179165;28;20046;-71
2023/08/21 06:25:19;;;;;;;1.77;0.82;;;;;;;45.56;7.56;96343.53;6196686;28;20429;-74
2023/08/21 06:28:22;;;;;;;2.25;0.88;;;;;;;46.45;7.37;96337.66;6196213;28;20057;-73
2023/08/21 06:31:27;;;;;;;0.90;0.65;;;;;;;46.08;7.43;96335.56;6196778;28;20046;-72
2023/08/21 06:34:34;;;;;;;1.15;0.70;;;;;;;45.75;7.75;96349.44;6196604;28;20090;-72
2023/08/21 06:37:40;;;;;;;0.75;0.50;;;;;;;46.32;7.11;96342.38;6179291;28;20054;-71
2023/08/21 06:40:45;;;;;;;0.77;0.55;;;;;;;46.95;6.74;96336.56;6195889;28;20042;-71
2023/08/21 06:43:50;;;;;;;1.23;0.38;;;;;;;47.40;6.84;96327.25;6194820;28;20065;-71
2023/08/21 06:46:54;;;;;;;2.67;0.70;;;;;;;48.67;6.68;96333.28;6195021;28;20093;-72
2023/08/21 06:50:00;;;;;;;2.78;0.50;;;;;;;49.19;6.48;96315.38;6195726;28;20594;-72
2023/08/21 06:53:03;;;;;;;0.60;0.47;;;;;;;48.42;6.50;96319.44;6195865;28;20038;-72
2023/08/21 06:56:09;;;;;;;0.77;0.30;;;;;;;48.75;6.71;96321.06;6196088;28;20157;-71
2023/08/21 06:59:15;;;;;;;2.55;0.60;;;;;;;48.44;7.28;96314.31;6196072;28;20049;-71
2023/08/21 07:02:19;;;;;;;2.33;0.38;;;;;;;48.88;6.75;96317.06;6178699;28;20065;-70
2023/08/21 07:05:23;;;;;;;0.90;0.50;;;;;;;49.85;6.15;96308.84;6195774;28;20040;-72
2023/08/21 07:08:27;;;;;;;1.92;0.63;;;;;;;48.94;6.27;96314.78;6195720;28;20533;-72
2023/08/21 07:11:32;;;;;;;2.13;0.70;;;;;;;47.00;7.44;96316.84;6196919;28;20112;-70
2023/08/21 07:14:37;;;;;;;1.33;0.93;;;;;;;46.78;7.67;96305.00;6196627;28;20046;-71
2023/08/21 07:17:42;;;;;;;0.57;0.50;;;;;;;48.61;7.09;96312.34;6196000;28;20623;-70
2023/08/21 07:20:51;;;;;;;1.35;0.47;;;;;;;49.74;6.37;96313.41;6195916;28;20050;-72
2023/08/21 07:23:56;;;;;;;0.93;0.40;;;;;;;50.46;5.88;96303.66;6177764;28;20498;-72
2023/08/21 07:27:01;;;;;;;0.65;0.30;;;;;;;50.08;6.25;96305.31;6195280;28;20200;-73
2023/08/21 07:30:05;;;;;;;1.27;0.63;;;;;;;49.10;6.72;96300.81;6195529;28;20092;-72
2023/08/21 07:33:09;;;;;;;0.90;0.55;;;;;;;47.34;7.25;96289.66;6178180;28;20054;-73
2023/08/21 07:36:16;;;;;;;1.75;0.50;;;;;;;46.23;8.49;96291.56;6195701;28;20074;-73
2023/08/21 07:39:21;;;;;;;3.60;0.68;;;;;;;45.23;8.71;96286.69;6195451;28;20049;-70
2023/08/21 07:42:25;;;;;;;1.77;0.68;;;;;;;44.88;8.80;96283.31;6195281;28;20141;-71
2023/08/21 07:45:30;;;;;;;1.38;0.38;;;;;;;44.56;9.24;96282.81;6195240;28;20184;-71
2023/08/21 07:48:35;;;;;;;0.93;0.50;;;;;;;44.33;9.31;96284.16;6195448;28;20041;-74
2023/08/21 07:51:39;;;;;;;2.13;0.77;;;;;;;44.53;9.48;96277.94;6195362;28;20105;-73
2023/08/21 07:54:44;;;;;;;1.35;0.75;;;;;;;45.07;8.99;96284.81;6195648;28;20211;-73
2023/08/21 07:57:48;;;;;;;1.08;0.43;;;;;;;44.43;9.15;96286.63;6195102;28;20050;-72
2023/08/21 08:00:52;;;;;;;2.38;0.52;;;;;;;44.44;9.34;96282.69;6177788;28;20082;-72
2023/08/21 08:03:57;;;;;;;1.77;0.60;;;;;;;44.78;9.01;96292.03;6195449;28;20196;-71
2023/08/21 08:07:02;;;;;;;1.27;0.60;;;;;;;44.64;9.16;96283.09;6195348;28;20620;-71
2023/08/21 08:10:06;;;;;;;1.63;0.35;;;;;;;45.70;8.91;96302.38;6195256;28;20100;-71
2023/08/21 08:13:10;;;;;;;2.63;0.60;;;;;;;46.82;8.10;96312.66;6194479;28;20081;-72
2023/08/21 08:16:16;;;;;;;0.63;0.50;;;;;;;46.79;7.67;96298.25;6195012;28;20421;-71
2023/08/21 08:19:21;;;;;;;0.77;0.52;;;;;;;46.74;8.04;96295.75;6194748;28;20133;-73
2023/08/21 08:22:26;;;;;;;2.17;0.30;;;;;;;46.71;8.22;96290.88;6197080;28;20111;-71
2023/08/21 08:25:30;;;;;;;2.85;0.60;;;;;;;47.20;7.89;96281.69;6182433;28;20165;-72
2023/08/21 08:28:34;;;;;;;0.60;0.50;;;;;;;48.26;7.25;96297.09;6199088;28;20131;-72
2023/08/21 08:31:38;;;;;;;1.17;0.35;;;;;;;48.65;7.18;96297.31;6197774;28;20042;-71
2023/08/21 08:34:42;;;;;;;1.73;0.80;;;;;;;48.36;7.82;96290.19;6199195;28;20042;-73
2023/08/21 08:37:46;;;;;;;4.10;0.50;;;;;;;48.87;7.59;96293.09;6200796;28;20046;-71
2023/08/21 08:40:54;;;;;;;0.43;0.32;;;;;;;48.65;7.39;96296.50;6198924;28;20137;-71
2023/08/21 08:44:00;;;;;;;0.90;0.50;;;;;;;48.45;7.38;96292.81;6198869;28;20046;-72
2023/08/21 08:47:05;;;;;;;0.68;0.50;;;;;;;48.85;7.69;96295.41;6199113;28;20185;-73
2023/08/21 08:50:09;;;;;;;1.13;0.60;;;;;;;48.78;7.17;96289.63;6198761;28;20137;-72
2023/08/21 08:53:14;;;;;;;2.55;0.60;;;;;;;46.63;8.36;96272.28;6198941;28;20522;-72
2023/08/21 08:56:19;;;;;;;1.60;0.68;;;;;;;44.22;9.64;96278.19;6198516;28;20042;-73
2023/08/21 08:59:23;;;;;;;1.30;0.52;;;;;;;42.93;10.16;96265.97;6198420;28;20042;-74
2023/08/21 09:02:28;;;;;;;0.60;0.60;;;;;;;42.47;10.80;96259.00;6198268;28;20053;-71
2023/08/21 09:05:32;;;;;;;3.22;0.77;;;;;;;40.50;11.85;96246.47;6196895;28;20051;-72
2023/08/21 09:08:37;;;;;;;1.23;0.70;;;;;;;38.83;13.19;96235.16;6198163;28;20042;-71
2023/08/21 09:11:47;;;;;;;0.82;0.82;;;;;;;38.65;13.61;96245.03;6198026;28;20141;-71
2023/08/21 09:14:52;;;;;;;1.35;0.80;;;;;;;39.89;13.12;96239.34;6198166;28;20123;-72
2023/08/21 09:17:57;;;;;;;1.20;0.70;;;;;;;42.28;11.69;96240.66;6198021;28;20506;-72
2023/08/21 09:21:03;;;;;;;2.70;0.65;;;;;;;44.15;10.63;96242.63;6198119;28;20085;-71
2023/08/21 09:24:09;;;;;;;1.63;0.60;;;;;;;45.74;9.63;96252.47;6198167;28;20093;-71
2023/08/21 09:27:18;;;;;;;2.53;0.60;;;;;;;45.61;9.30;96246.03;6197800;28;20450;-70
2023/08/21 09:30:23;;;;;;;2.75;0.80;;;;;;;45.95;8.99;96246.88;6198120;28;20176;-73
2023/08/21 09:33:28;;;;;;;1.27;0.88;;;;;;;46.73;8.86;96244.00;6197695;28;20093;-71
2023/08/21 09:36:33;;;;;;;1.02;0.50;;;;;;;46.44;8.62;96253.38;6197923;28;20422;-70
2023/08/21 09:39:41;;;;;;;0.60;0.45;;;;;;;45.40;9.20;96238.53;6197715;28;20168;-71
2023/08/21 09:42:51;;;;;;;1.80;0.70;;;;;;;45.24;9.55;96226.41;6197220;28;20056;-72
2023/08/21 09:45:55;;;;;;;1.45;0.88;;;;;;;45.31;9.33;96223.91;6198001;28;20042;-71
2023/08/21 09:49:05;;;;;;;8.02;6.38;;;;;;;45.63;9.15;96229.84;6197294;28;20042;-70
2023/08/21 09:52:10;;;;;;;1.33;0.82;;;;;;;46.17;8.79;96231.75;6197240;28;20057;-71
2023/08/21 09:55:32;;;;;;;1.27;0.30;;;;;;;46.20;9.09;96226.28;6197410;28;20045;-71
2023/08/21 09:58:37;;;;;;;0.93;0.55;;;;;;;45.80;9.13;96224.09;6197544;28;20057;-71
2023/08/21 10:01:46;;;;;;;1.15;0.57;;;;;;;45.59;9.11;96232.50;6197282;28;20050;-70
2023/08/21 10:04:52;;;;;;;0.55;0.50;;;;;;;44.00;9.55;96221.00;6197235;28;20073;-70
2023/08/21 10:07:55;;;;;;;1.15;0.43;;;;;;;40.84;11.95;96206.63;6196861;28;20100;-71
2023/08/21 10:11:04;;;;;;;3.15;0.88;;;;;;;40.50;12.33;96218.09;6197196;28;20383;-71
2023/08/21 10:14:07;;;;;;;3.40;1.07;;;;;;;40.07;12.71;96213.66;6197039;28;20046;-71
2023/08/21 10:17:15;;;;;;;3.30;1.15;;;;;;;39.77;12.95;96204.03;6196575;28;20473;-70
2023/08/21 10:20:24;;;;;;;1.30;0.90;;;;;;;39.63;13.25;96225.19;6196694;28;20038;-70
2023/08/21 10:23:30;;;;;;;1.92;0.60;;;;;;;39.24;13.31;96213.41;6196717;28;20412;-71
2023/08/21 10:26:40;;;;;;;1.67;0.80;;;;;;;38.20;13.79;96216.97;6196251;28;20069;-70
2023/08/21 10:29:56;;;;;;;1.20;0.50;;;;;;;36.83;15.14;96216.94;6196591;28;20141;-74
2023/08/21 10:32:59;;;;;;;1.83;0.77;;;;;;;35.65;15.98;96203.63;6195767;28;20057;-70
2023/08/21 10:50:04;;;;;;;2.47;0.90;;;;;;;34.88;16.94;96208.19;6265401;27;2937353;-71
2023/08/21 10:53:06;;;;;;;0.93;0.70;;;;;;;34.84;17.22;96205.16;6340823;28;20450;-71
2023/08/21 10:56:12;;;;;;;2.95;0.80;;;;;;;34.08;17.89;96207.59;6340677;28;20043;-71
2023/08/21 10:59:18;;;;;;;1.33;0.60;;;;;;;33.47;18.28;96197.06;6340702;28;20093;-72
2023/08/21 11:02:23;;;;;;;1.35;0.85;;;;;;;33.21;18.56;96199.59;6340007;28;20036;-72
2023/08/21 11:05:27;;;;;;;2.75;1.00;;;;;;;32.61;19.54;96190.53;6339921;28;20035;-72
2023/08/21 11:08:35;;;;;;;2.60;1.00;;;;;;;31.83;20.33;96192.50;6339857;28;20465;-72
2023/08/21 11:11:42;;;;;;;1.33;1.00;;;;;;;31.14;20.76;96195.50;6338921;28;20536;-71
2023/08/21 11:14:49;;;;;;;2.90;1.13;;;;;;;30.76;21.30;96194.25;6339897;28;20044;-71
2023/08/21 11:18:02;;;;;;;1.30;0.90;;;;;;;30.52;21.51;96196.28;6339425;28;20063;-71
2023/08/21 11:21:09;;;;;;;2.97;1.35;;;;;;;30.19;21.93;96202.34;6339831;28;20498;-72
2023/08/21 11:24:12;;;;;;;3.40;1.58;;;;;;;29.88;22.40;96196.28;6339247;28;20510;-72
2023/08/21 11:27:15;;;;;;;4.30;1.95;;;;;;;29.61;22.72;96195.94;6339210;28;20043;-72
2023/08/21 11:30:23;;;;;;;4.30;2.30;;;;;;;29.44;23.16;96198.53;6339331;28;20047;-72
2023/08/21 11:33:26;;;;;;;2.20;1.77;;;;;;;29.15;23.34;96194.81;6339634;28;20771;-71
2023/08/21 11:36:30;;;;;;;3.30;1.20;;;;;;;28.96;23.71;96194.06;6339465;28;20423;-71
2023/08/21 11:39:45;;;;;;;4.05;0.82;;;;;;;28.65;24.25;96204.09;6339107;28;20126;-72
2023/08/21 11:42:59;;;;;;;3.17;1.25;;;;;;;28.40;24.54;96187.16;6339310;28;20044;-73
2023/08/21 11:46:04;;;;;;;1.83;1.20;;;;;;;28.24;25.04;96198.59;6339575;28;20062;-72
2023/08/21 11:49:10;;;;;;;1.80;1.10;;;;;;;28.01;25.17;96188.47;6332285;28;20051;-72
2023/08/21 11:52:21;;;;;;;2.33;1.27;;;;;;;27.95;25.58;96195.59;6322670;28;20043;-71
2023/08/21 11:55:25;;;;;;;1.48;1.27;;;;;;;28.06;25.50;96199.44;6304370;28;20494;-71
2023/08/21 11:58:31;;;;;;;3.75;1.15;;;;;;;28.24;25.30;96190.47;6322196;28;20513;-71
2023/08/21 12:01:35;;;;;;;3.22;1.10;;;;;;;28.32;24.85;96179.34;6322015;28;20040;-72
2023/08/21 12:04:43;;;;;;;2.63;1.00;;;;;;;28.29;25.12;96175.22;6321998;28;20040;-71
2023/08/21 12:07:46;;;;;;;4.40;2.78;;;;;;;28.24;24.93;96163.41;6321790;28;20044;-71
2023/08/21 12:10:52;;;;;;;1.67;1.00;;;;;;;28.08;25.27;96171.13;6321864;28;20409;-72
2023/08/21 12:13:57;;;;;;;2.25;1.00;;;;;;;27.91;25.58;96175.47;6321770;28;20132;-70
2023/08/21 12:17:00;;;;;;;3.05;1.00;;;;;;;27.78;25.37;96173.72;6303458;28;20040;-71
2023/08/21 12:20:10;;;;;;;3.95;1.65;;;;;;;27.83;25.42;96173.06;6321691;28;20048;-71
2023/08/21 12:23:14;;;;;;;3.35;1.15;;;;;;;28.02;25.50;96169.28;6320557;28;20055;-72
2023/08/21 12:26:23;;;;;;;1.88;1.10;;;;;;;28.73;24.82;96166.91;6321102;28;20047;-72
2023/08/21 12:29:30;;;;;;;2.80;1.05;;;;;;;29.61;23.79;96162.56;6320983;28;20174;-70
2023/08/21 12:32:37;;;;;;;3.28;0.98;;;;;;;30.20;23.14;96155.16;6321006;28;20124;-71
2023/08/21 12:35:41;;;;;;;3.53;1.20;;;;;;;31.02;22.54;96154.00;6303587;28;20044;-72
2023/08/21 12:38:45;;;;;;;1.98;0.90;;;;;;;31.56;21.78;96157.03;6320989;28;20105;-71
2023/08/21 12:41:48;;;;;;;3.25;1.00;;;;;;;31.55;21.74;96155.38;6321049;28;20044;-71
2023/08/21 12:44:54;;;;;;;1.75;1.10;;;;;;;31.33;21.59;96153.41;6320019;28;20044;-71
2023/08/21 12:48:03;;;;;;;3.17;1.17;;;;;;;30.80;22.55;96154.72;6320442;28;20060;-71
2023/08/21 12:51:07;;;;;;;4.13;0.98;;;;;;;30.59;22.62;96147.25;6320923;28;20445;-71
2023/08/21 12:54:13;;;;;;;3.70;0.93;;;;;;;30.16;23.01;96151.28;6320576;28;20040;-71
2023/08/21 12:57:16;;;;;;;1.92;0.70;;;;;;;29.95;23.71;96145.47;6320431;28;20130;-72
2023/08/21 13:00:23;;;;;;;1.65;0.98;;;;;;;30.10;23.34;96154.97;6319835;28;20040;-70
2023/08/21 13:03:33;;;;;;;1.45;0.85;;;;;;;30.25;23.38;96144.44;6320451;28;21189;-70
2023/08/21 13:06:39;;;;;;;3.97;1.02;;;;;;;30.67;22.90;96152.28;6319361;28;20051;-71
2023/08/21 13:09:45;;;;;;;0.93;0.70;;;;;;;30.72;22.65;96146.94;6320312;28;20161;-72
2023/08/21 13:12:52;;;;;;;2.15;0.85;;;;;;;30.58;23.16;96137.47;6320343;28;20048;-72
2023/08/21 13:15:54;;;;;;;2.65;0.65;;;;;;;30.08;23.74;96138.09;6319959;28;20509;-72
2023/08/21 13:18:56;;;;;;;1.05;0.80;;;;;;;29.20;24.70;96139.94;6319614;28;20044;-72
2023/08/21 13:21:59;;;;;;;2.13;0.93;;;;;;;28.31;25.55;96135.22;6301945;28;20490;-71
2023/08/21 13:25:05;;;;;;;2.95;0.90;;;;;;;27.79;26.12;96129.44;6319925;28;20130;-72
2023/08/21 13:28:07;;;;;;;1.65;0.70;;;;;;;27.56;26.62;96130.09;6319873;28;20050;-71
2023/08/21 13:31:13;;;;;;;2.58;0.88;;;;;;;27.42;26.99;96123.16;6319652;28;20036;-72
2023/08/21 13:34:14;;;;;;;5.35;2.70;;;;;;;27.13;27.11;96114.69;6301190;28;20189;-71
2023/08/21 13:37:18;;;;;;;3.42;1.38;;;;;;;26.99;27.47;96119.38;6301934;28;20142;-71
2023/08/21 13:40:21;;;;;;;4.18;1.10;;;;;;;26.87;27.84;96111.19;6320013;28;20129;-72
2023/08/21 13:43:29;;;;;;;4.35;2.38;;;;;;;26.58;28.08;96112.66;6319497;28;20070;-70
2023/08/21 13:46:31;;;;;;;7.35;2.58;;;;;;;26.25;28.80;96106.63;6319613;28;20036;-70
2023/08/21 13:49:35;;;;;;;3.47;1.90;;;;;;;25.97;28.80;96111.34;6319122;28;20052;-70
2023/08/21 13:52:40;;;;;;;5.53;1.88;;;;;;;25.80;29.42;96115.53;6300965;28;20047;-70
2023/08/21 13:55:45;;;;;;;3.80;1.52;;;;;;;25.80;29.67;96115.53;6319444;28;20083;-70
2023/08/21 13:58:46;;;;;;;3.83;1.42;;;;;;;25.87;29.26;96118.22;6318383;28;20158;-70
2023/08/21 14:01:52;;;;;;;5.03;1.55;;;;;;;25.82;29.54;96118.84;6319414;28;20048;-72
2023/08/21 14:04:56;;;;;;;5.03;2.50;;;;;;;25.80;29.75;96112.84;6319198;28;20411;-70
2023/08/21 14:08:03;;;;;;;3.95;2.15;;;;;;;25.97;29.33;96113.22;6319110;28;20048;-70
2023/08/21 14:11:07;;;;;;;5.22;2.30;;;;;;;26.06;29.38;96113.78;6318546;28;20499;-70
2023/08/21 14:14:14;;;;;;;5.70;2.95;;;;;;;26.11;29.33;96111.28;6318478;28;20490;-69
2023/08/21 14:17:21;;;;;;;5.30;3.70;;;;;;;26.19;29.08;96113.72;6318865;28;20044;-72
2023/08/21 14:20:26;;;;;;;31.27;19.38;;;;;;;26.05;29.62;96101.34;6318880;28;20131;-72
2023/08/21 14:23:30;;;;;;;7.90;5.50;;;;;;;26.02;29.78;96113.41;6318809;28;20028;-70
2023/08/21 14:26:39;;;;;;;7.38;4.35;;;;;;;25.70;29.79;96115.16;6318842;28;20051;-70
2023/08/21 14:29:44;;;;;;;7.50;4.07;;;;;;;25.41;30.43;96114.63;6317549;28;20058;-70
2023/08/21 14:32:50;;;;;;;5.78;2.58;;;;;;;25.15;31.40;96118.19;6318580;28;20414;-70
2023/08/21 14:35:56;;;;;;;8.43;3.42;;;;;;;24.92;31.86;96115.91;6318450;28;20044;-70
2023/08/21 14:39:06;;;;;;;6.90;2.60;;;;;;;24.83;32.06;96114.47;6318614;28;20136;-70
2023/08/21 14:42:07;;;;;;;10.00;3.10;;;;;;;24.76;32.17;96124.38;6318472;28;20085;-70